Wingate, Indiana
Current Conditions -  °F | °C
As of 2:54 PM on Thursday 29 Jan 2015 (Local Time) from KLAF Reporting Station
Haze Haze  
Wind Chill: -3°   Ceiling: 1800
Heat Index:   Visibility: 5mi
Dew Point: -2°   Wind: 10mph
Humidity: 82%   Direction: 300°WNW
Pressure: 29.97"   Gusts: 20mph
Location:  40.17°N, 87.07°W
Report Text: KLAF 291954Z 30009G17KT 5SM HZ BKN018 BKN024 OVC030 01/M02 A2997 RMK AO2 SLP155 T00111017
Loading
Personal Weather Stations






























Interactive Weather Map New forecast layout! Learn more

10-Day Weather Forecast

Advertisements
Track Severe Weather on mobile